createdAt,value
2022-11-03T00:00:51.400Z,2.10
2022-11-03T00:03:37.044Z,3.20
2022-11-03T00:06:22.371Z,3.15
2022-11-03T00:09:10.324Z,2.45
2022-11-03T00:11:55.994Z,1.95
2022-11-03T00:14:41.398Z,1.80
2022-11-03T00:17:26.953Z,2.88
2022-11-03T00:20:12.524Z,2.20
2022-11-03T00:22:57.898Z,2.00
2022-11-03T00:25:43.284Z,1.73
2022-11-03T00:28:32.300Z,1.48
2022-11-03T00:31:20.737Z,1.63
2022-11-03T00:34:07.272Z,1.48
2022-11-03T00:36:52.803Z,1.85
2022-11-03T00:39:38.288Z,1.42
2022-11-03T00:42:24.015Z,1.40
2022-11-03T00:45:10.032Z,1.35
2022-11-03T00:48:15.000Z,1.50
2022-11-03T00:51:25.119Z,1.35
2022-11-03T00:54:10.620Z,1.10
2022-11-03T00:56:55.873Z,0.93
2022-11-03T00:59:41.454Z,0.98
2022-11-03T01:02:27.008Z,1.15
2022-11-03T01:05:31.481Z,1.10
2022-11-03T01:08:16.866Z,0.60
2022-11-03T01:11:33.255Z,1.77
2022-11-03T01:14:18.929Z,0.73
2022-11-03T01:17:09.588Z,1.17
2022-11-03T01:19:55.366Z,1.55
2022-11-03T01:22:40.692Z,0.70
2022-11-03T01:25:26.543Z,0.73
2022-11-03T01:28:11.756Z,0.90
2022-11-03T01:31:09.349Z,0.82
2022-11-03T01:33:56.561Z,0.63
2022-11-03T01:36:41.750Z,0.40
2022-11-03T01:39:27.383Z,0.80
2022-11-03T01:42:14.569Z,0.60
2022-11-03T01:45:00.414Z,0.47
2022-11-03T01:47:46.754Z,0.50
2022-11-03T01:50:32.451Z,0.50
2022-11-03T01:53:18.390Z,0.35
2022-11-03T01:56:04.982Z,1.20
2022-11-03T01:58:53.867Z,0.82
2022-11-03T02:01:39.673Z,0.63
2022-11-03T02:04:29.922Z,1.05
2022-11-03T02:07:18.305Z,0.60
2022-11-03T02:10:03.930Z,0.90
2022-11-03T02:12:49.319Z,1.88
2022-11-03T02:15:35.930Z,0.80
2022-11-03T02:18:26.838Z,0.80
2022-11-03T02:21:46.825Z,0.77
2022-11-03T02:24:54.296Z,0.50
2022-11-03T02:27:40.630Z,0.93
2022-11-03T02:30:30.228Z,0.93
2022-11-03T02:33:26.747Z,1.00
2022-11-03T02:36:31.064Z,1.02
2022-11-03T02:39:19.792Z,0.77
2022-11-03T02:42:07.506Z,2.40
2022-11-03T02:44:55.225Z,0.93
2022-11-03T02:47:41.999Z,1.85
2022-11-03T02:50:32.576Z,1.10
2022-11-03T02:53:18.056Z,1.23
2022-11-03T02:56:12.878Z,1.30
2022-11-03T02:59:03.057Z,1.45
2022-11-03T03:02:10.845Z,1.90
2022-11-03T03:09:27.657Z,2.03
2022-11-03T03:12:17.277Z,2.20
2022-11-03T03:15:06.021Z,2.72
2022-11-03T03:18:20.434Z,2.63
2022-11-03T03:21:13.655Z,2.95
2022-11-03T03:24:09.974Z,2.50
2022-11-03T03:26:59.119Z,3.30
2022-11-03T03:29:59.122Z,2.40
2022-11-03T03:32:48.373Z,3.40
2022-11-03T03:35:37.574Z,2.88
2022-11-03T03:38:28.075Z,3.25
2022-11-03T03:41:22.039Z,2.47
2022-11-03T03:44:10.364Z,3.10
2022-11-03T03:47:25.531Z,2.92
2022-11-03T03:50:11.123Z,2.35
2022-11-03T03:53:01.735Z,2.42
2022-11-03T03:55:50.329Z,2.65
2022-11-03T03:58:36.587Z,2.53
2022-11-03T04:01:22.235Z,1.65
2022-11-03T04:04:07.631Z,3.03
2022-11-03T04:07:13.394Z,2.60
2022-11-03T04:09:58.713Z,2.00
2022-11-03T04:13:03.635Z,4.72
2022-11-03T04:15:49.207Z,2.05
2022-11-03T04:18:53.625Z,2.88
2022-11-03T04:21:57.614Z,2.00
2022-11-03T04:27:34.935Z,2.33
2022-11-03T04:30:24.920Z,1.85
2022-11-03T04:33:22.813Z,1.90
2022-11-03T04:36:22.265Z,2.55
2022-11-03T04:39:17.408Z,2.08
2022-11-03T04:42:04.790Z,2.10
2022-11-03T04:44:50.223Z,1.90
2022-11-03T04:47:35.570Z,1.65
2022-11-03T04:50:23.750Z,1.90
2022-11-03T04:53:15.177Z,1.17
2022-11-03T04:56:06.197Z,1.15
2022-11-03T04:58:53.668Z,1.00
2022-11-03T05:01:39.653Z,2.75
2022-11-03T05:04:25.863Z,1.08
2022-11-03T05:07:23.268Z,1.85
2022-11-03T05:10:15.184Z,1.45
2022-11-03T05:13:00.644Z,1.38
2022-11-03T05:15:49.509Z,1.10
2022-11-03T05:18:38.806Z,1.33
2022-11-03T05:21:26.947Z,1.02
2022-11-03T05:27:00.968Z,1.70
2022-11-03T05:29:47.324Z,1.20
2022-11-03T05:32:34.265Z,1.50
2022-11-03T05:35:23.133Z,1.55
2022-11-03T05:38:14.749Z,1.77
2022-11-03T05:41:01.161Z,1.65
2022-11-03T05:43:54.048Z,2.20
2022-11-03T05:46:39.500Z,1.80
2022-11-03T05:49:25.347Z,2.08
2022-11-03T05:52:19.663Z,2.70
2022-11-03T05:55:05.924Z,1.90
2022-11-03T05:57:52.329Z,2.03
2022-11-03T06:00:47.094Z,2.15
2022-11-03T06:03:36.486Z,2.20
2022-11-03T06:06:29.383Z,3.17
2022-11-03T06:09:22.933Z,2.47
2022-11-03T06:12:14.236Z,3.35
2022-11-03T06:14:59.688Z,2.80
2022-11-03T06:17:45.111Z,2.90
2022-11-03T06:20:30.583Z,4.68
2022-11-03T06:23:17.471Z,3.78
2022-11-03T06:26:04.021Z,1.55
2022-11-03T06:28:49.756Z,1.27
2022-11-03T06:31:35.618Z,0.88
2022-11-03T06:34:33.532Z,0.80
2022-11-03T06:37:23.545Z,0.90
2022-11-03T06:40:11.758Z,0.80
2022-11-03T06:42:58.568Z,0.60
2022-11-03T06:45:56.212Z,0.55
2022-11-03T06:48:41.695Z,1.20
2022-11-03T06:51:28.789Z,1.30
2022-11-03T06:54:14.342Z,1.65
2022-11-03T06:56:59.975Z,1.73
2022-11-03T06:59:45.877Z,2.22
2022-11-03T07:03:07.234Z,1.77
2022-11-03T07:05:57.853Z,2.28
2022-11-03T07:08:49.938Z,1.85
2022-11-03T07:11:47.490Z,2.08
2022-11-03T07:14:34.145Z,2.28
2022-11-03T07:17:21.980Z,1.80
2022-11-03T07:20:16.068Z,1.95
2022-11-03T07:23:02.281Z,1.33
2022-11-03T07:25:54.593Z,1.92
2022-11-03T07:28:40.370Z,2.10
2022-11-03T07:31:26.426Z,1.77
2022-11-03T07:34:20.831Z,1.92
2022-11-03T07:37:09.316Z,1.35
2022-11-03T07:39:54.702Z,1.55
2022-11-03T07:42:40.265Z,1.15
2022-11-03T07:45:38.299Z,1.50
2022-11-03T07:48:33.707Z,1.83
2022-11-03T07:51:33.198Z,1.23
2022-11-03T07:54:18.714Z,1.50
2022-11-03T07:57:05.918Z,1.20
2022-11-03T07:59:53.971Z,1.27
2022-11-03T08:02:49.007Z,1.33
2022-11-03T08:05:34.856Z,1.33
2022-11-03T08:08:20.409Z,1.10
2022-11-03T08:11:06.038Z,1.45
2022-11-03T08:13:52.574Z,1.40
2022-11-03T08:16:38.942Z,1.17
2022-11-03T08:19:24.953Z,1.52
2022-11-03T08:22:11.025Z,1.00
2022-11-03T08:24:56.828Z,1.10
2022-11-03T08:27:42.383Z,1.00
2022-11-03T08:30:28.492Z,1.15
2022-11-03T08:33:13.882Z,1.38
2022-11-03T08:36:00.293Z,1.50
2022-11-03T08:38:47.223Z,1.30
2022-11-03T08:41:32.585Z,1.23
2022-11-03T08:44:18.025Z,1.27
2022-11-03T08:47:03.578Z,1.10
2022-11-03T08:49:49.068Z,1.40
2022-11-03T08:52:34.811Z,1.25
2022-11-03T08:55:20.352Z,3.63
2022-11-03T08:58:06.022Z,1.55
2022-11-03T09:00:52.560Z,1.40
2022-11-03T09:03:38.328Z,2.17
2022-11-03T09:06:24.145Z,1.63
2022-11-03T09:12:15.151Z,1.40
2022-11-03T09:15:00.575Z,1.20
2022-11-03T09:17:46.133Z,0.98
2022-11-03T09:20:31.693Z,1.23
2022-11-03T09:23:17.149Z,1.48
2022-11-03T09:26:02.818Z,1.40
2022-11-03T09:28:49.473Z,1.50
2022-11-03T09:31:34.848Z,1.88
2022-11-03T09:34:20.325Z,1.70
2022-11-03T09:37:06.050Z,1.60
2022-11-03T09:39:51.640Z,1.98
2022-11-03T09:42:38.534Z,2.00
2022-11-03T09:45:24.306Z,1.73
2022-11-03T09:48:11.987Z,2.28
2022-11-03T09:50:57.629Z,1.65
2022-11-03T09:53:43.351Z,1.75
2022-11-03T09:56:29.212Z,1.70
2022-11-03T09:59:20.481Z,1.67
2022-11-03T10:02:21.863Z,1.48
2022-11-03T10:05:12.768Z,1.90
2022-11-03T10:08:03.441Z,1.65
2022-11-03T10:10:49.868Z,1.48
2022-11-03T10:13:37.973Z,1.50
2022-11-03T10:16:26.233Z,1.55
2022-11-03T10:19:14.243Z,1.92
2022-11-03T10:21:59.769Z,1.65
2022-11-03T10:24:45.657Z,1.40
2022-11-03T10:27:31.238Z,1.40
2022-11-03T10:30:16.806Z,1.27
2022-11-03T10:33:02.381Z,2.47
2022-11-03T10:35:48.112Z,1.40
2022-11-03T10:38:35.344Z,1.73
2022-11-03T10:41:28.813Z,1.50
2022-11-03T10:44:19.544Z,1.50
2022-11-03T10:47:06.910Z,1.70
2022-11-03T10:49:55.131Z,1.50
2022-11-03T10:52:40.235Z,0.98
2022-11-03T10:55:27.740Z,1.10
2022-11-03T10:58:13.475Z,1.25
2022-11-03T11:00:59.816Z,1.40
2022-11-03T11:03:45.926Z,1.25
2022-11-03T11:06:31.676Z,1.45
2022-11-03T11:09:25.785Z,2.00
2022-11-03T11:12:21.874Z,1.10
2022-11-03T11:15:39.886Z,1.50
2022-11-03T11:18:28.073Z,1.27
2022-11-03T11:21:17.625Z,1.92
2022-11-03T11:24:03.167Z,1.40
2022-11-03T11:26:50.820Z,1.55
2022-11-03T11:29:36.955Z,1.20
2022-11-03T11:32:46.634Z,1.42
2022-11-03T11:35:31.910Z,1.52
2022-11-03T11:38:45.273Z,1.50
2022-11-03T11:42:07.737Z,2.20
2022-11-03T11:44:58.860Z,1.30
2022-11-03T11:47:51.823Z,1.65
2022-11-03T11:50:37.142Z,1.43
2022-11-03T11:53:28.992Z,1.92
2022-11-03T11:56:17.408Z,2.28
2022-11-03T11:59:02.805Z,2.42
2022-11-03T12:01:53.333Z,2.28
2022-11-03T12:04:39.036Z,2.75
2022-11-03T12:07:37.083Z,2.45
2022-11-03T12:10:28.581Z,2.47
2022-11-03T12:13:35.579Z,2.80
2022-11-03T12:16:28.249Z,1.77
2022-11-03T12:19:32.180Z,1.75
2022-11-03T12:22:23.631Z,1.38
2022-11-03T12:25:36.331Z,2.50
2022-11-03T12:28:34.580Z,1.33
2022-11-03T12:31:20.048Z,1.58
2022-11-03T12:34:05.641Z,1.75
2022-11-03T12:36:55.940Z,1.42
2022-11-03T12:39:41.610Z,1.83
2022-11-03T12:42:27.240Z,1.92
2022-11-03T12:45:13.787Z,1.73
2022-11-03T12:47:59.228Z,2.00
2022-11-03T12:50:44.922Z,1.60
2022-11-03T12:53:30.336Z,1.30
2022-11-03T12:56:16.990Z,1.23
2022-11-03T12:59:02.612Z,1.15
2022-11-03T13:01:48.185Z,1.42
2022-11-03T13:04:33.786Z,1.30
2022-11-03T13:07:24.981Z,1.30
2022-11-03T13:10:13.702Z,1.48
2022-11-03T13:12:59.431Z,1.80
2022-11-03T13:15:45.037Z,1.73
2022-11-03T13:18:30.324Z,1.88
2022-11-03T13:21:16.011Z,1.30
2022-11-03T13:24:01.145Z,1.55
2022-11-03T13:26:46.789Z,1.83
2022-11-03T13:29:35.397Z,1.63
2022-11-03T13:32:21.128Z,1.67
2022-11-03T13:35:12.415Z,1.65
2022-11-03T13:37:58.832Z,1.92
2022-11-03T13:41:03.802Z,1.23
2022-11-03T13:43:49.872Z,0.90
2022-11-03T13:46:35.341Z,1.45
2022-11-03T13:49:59.163Z,1.40
2022-11-03T13:52:28.307Z,1.27
2022-11-03T14:01:24.935Z,1.55
2022-11-03T14:07:16.286Z,1.20
2022-11-03T14:10:03.954Z,1.10
2022-11-03T14:12:49.732Z,1.30
2022-11-03T14:15:35.196Z,1.27
2022-11-03T14:18:20.660Z,1.60
2022-11-03T14:21:06.466Z,1.60
2022-11-03T14:23:51.750Z,2.15
2022-11-03T14:26:42.664Z,1.67
2022-11-03T14:29:28.535Z,1.80
2022-11-03T14:32:14.090Z,1.83
2022-11-03T14:34:59.389Z,2.00
2022-11-03T14:37:45.714Z,3.45
2022-11-03T14:40:49.640Z,2.10
2022-11-03T14:43:35.385Z,2.10
2022-11-03T14:46:21.206Z,1.75
2022-11-03T14:49:06.884Z,2.00
2022-11-03T14:51:52.645Z,2.13
2022-11-03T14:54:38.301Z,1.75
2022-11-03T14:57:23.548Z,3.15
2022-11-03T15:00:11.195Z,1.80
2022-11-03T15:02:56.584Z,2.45
2022-11-03T15:05:44.828Z,1.90
2022-11-03T15:08:32.185Z,2.45
2022-11-03T15:11:17.731Z,1.88
2022-11-03T15:14:03.521Z,2.05
2022-11-03T15:16:49.264Z,1.88
2022-11-03T15:19:35.180Z,1.88
2022-11-03T15:22:20.859Z,1.80
2022-11-03T15:25:13.914Z,1.67
2022-11-03T15:28:00.300Z,1.52
2022-11-03T15:30:45.781Z,2.05
2022-11-03T15:33:31.680Z,1.48
2022-11-03T15:36:17.121Z,1.75
2022-11-03T15:39:03.318Z,1.83
2022-11-03T15:41:49.065Z,2.08
2022-11-03T15:44:34.754Z,2.15
2022-11-03T15:47:20.280Z,1.70
2022-11-03T15:50:07.717Z,1.70
2022-11-03T15:52:54.367Z,1.80
2022-11-03T15:55:39.778Z,1.88
2022-11-03T15:58:25.212Z,1.88
2022-11-03T16:01:10.891Z,2.15
2022-11-03T16:03:56.364Z,1.80
2022-11-03T16:09:47.787Z,2.08
2022-11-03T16:12:33.659Z,2.25
2022-11-03T16:15:19.192Z,1.98
2022-11-03T16:18:07.714Z,2.17
2022-11-03T16:20:53.255Z,2.10
2022-11-03T16:23:38.706Z,1.85
2022-11-03T16:26:24.325Z,2.53
2022-11-03T16:29:09.563Z,2.00
2022-11-03T16:31:55.047Z,2.70
2022-11-03T16:34:40.682Z,2.10
2022-11-03T16:37:27.593Z,2.65
2022-11-03T16:40:19.138Z,1.65
2022-11-03T16:43:05.455Z,2.22
2022-11-03T16:45:50.989Z,2.95
2022-11-03T16:48:36.561Z,2.88
2022-11-03T16:51:22.322Z,2.33
2022-11-03T16:54:07.621Z,2.10
2022-11-03T16:56:54.884Z,2.50
2022-11-03T16:59:40.593Z,3.13
2022-11-03T17:02:28.016Z,2.35
2022-11-03T17:05:16.662Z,2.20
2022-11-03T17:08:02.579Z,3.97
2022-11-03T17:10:47.924Z,2.50
2022-11-03T17:13:33.579Z,1.90
2022-11-03T17:16:19.165Z,2.10
2022-11-03T17:19:07.739Z,2.60
2022-11-03T17:21:53.555Z,2.65
2022-11-03T17:24:39.117Z,2.28
2022-11-03T17:27:29.189Z,1.92
2022-11-03T17:30:20.928Z,2.35
2022-11-03T17:33:08.555Z,2.47
2022-11-03T17:35:54.074Z,2.38
2022-11-03T17:38:39.692Z,2.10
2022-11-03T17:41:25.139Z,2.35
2022-11-03T17:44:14.282Z,2.38
2022-11-03T17:46:59.720Z,2.17
2022-11-03T17:49:46.158Z,2.50
2022-11-03T17:52:32.483Z,2.47
2022-11-03T17:55:23.622Z,2.65
2022-11-03T17:58:10.686Z,2.75
2022-11-03T18:00:56.208Z,3.03
2022-11-03T18:03:41.897Z,2.67
2022-11-03T18:06:27.509Z,2.85
2022-11-03T18:09:13.224Z,3.08
2022-11-03T18:12:17.076Z,3.65
2022-11-03T18:15:04.612Z,4.07
2022-11-03T18:17:50.970Z,4.47
2022-11-03T18:20:36.205Z,5.10
2022-11-03T18:23:30.020Z,5.57
2022-11-03T18:26:22.094Z,5.15
2022-11-03T18:31:53.628Z,5.88
2022-11-03T18:34:39.367Z,4.95
2022-11-03T18:37:24.839Z,5.45
2022-11-03T18:40:11.573Z,6.55
2022-11-03T18:42:56.833Z,6.00
2022-11-03T18:45:42.768Z,6.85
2022-11-03T18:48:28.058Z,7.28
2022-11-03T18:51:13.583Z,5.97
2022-11-03T18:53:59.758Z,6.20
2022-11-03T18:56:45.012Z,4.45
2022-11-03T18:59:37.585Z,5.07
2022-11-03T19:02:26.337Z,5.97
2022-11-03T19:05:16.607Z,6.35
2022-11-03T19:08:02.801Z,5.32
2022-11-03T19:10:48.777Z,5.32
2022-11-03T19:13:40.725Z,5.90
2022-11-03T19:16:26.101Z,6.35
2022-11-03T19:19:14.590Z,8.07
2022-11-03T19:21:59.716Z,6.88
2022-11-03T19:24:46.151Z,7.10
2022-11-03T19:27:33.886Z,7.15
2022-11-03T19:30:20.124Z,6.70
2022-11-03T19:33:07.331Z,8.90
2022-11-03T19:35:52.949Z,8.95
2022-11-03T19:38:38.515Z,8.00
2022-11-03T19:41:42.739Z,5.45
2022-11-03T19:44:28.305Z,5.53
2022-11-03T19:47:17.930Z,5.38
2022-11-03T19:50:06.615Z,7.32
2022-11-03T19:53:02.534Z,6.18
2022-11-03T19:55:48.554Z,6.07
2022-11-03T19:58:34.337Z,5.35
2022-11-03T20:01:19.783Z,5.88
2022-11-03T20:04:05.663Z,5.97
2022-11-03T20:06:51.447Z,7.03
2022-11-03T20:09:37.968Z,7.22
2022-11-03T20:12:23.640Z,10.75
2022-11-03T20:15:18.152Z,10.25
2022-11-03T20:18:03.885Z,10.70
2022-11-03T20:20:49.773Z,7.85
2022-11-03T20:23:39.290Z,7.45
2022-11-03T20:26:26.165Z,6.57
2022-11-03T20:29:13.796Z,7.10
2022-11-03T20:31:59.480Z,7.43
2022-11-03T20:34:46.593Z,6.55
2022-11-03T20:37:32.240Z,8.00
2022-11-03T20:40:21.522Z,6.50
2022-11-03T20:43:13.614Z,7.78
2022-11-03T20:46:00.449Z,7.20
2022-11-03T20:48:45.569Z,6.43
2022-11-03T20:51:37.862Z,8.45
2022-11-03T20:54:23.243Z,8.52
2022-11-03T20:57:13.787Z,8.30
2022-11-03T21:01:29.711Z,7.28
2022-11-03T21:04:18.180Z,6.40
2022-11-03T21:07:03.815Z,6.53
2022-11-03T21:09:49.020Z,5.93
2022-11-03T21:12:35.066Z,6.38
2022-11-03T21:16:03.700Z,4.35
2022-11-03T21:19:07.732Z,3.80
2022-11-03T21:21:53.239Z,5.18
2022-11-03T21:24:38.765Z,6.13
2022-11-03T21:27:24.256Z,6.43
2022-11-03T21:30:14.558Z,5.47
2022-11-03T21:33:00.214Z,4.93
2022-11-03T21:35:48.050Z,3.50
2022-11-03T21:38:33.432Z,2.90
2022-11-03T21:41:37.543Z,3.13
2022-11-03T21:44:24.680Z,3.47
2022-11-03T21:47:11.941Z,3.63
2022-11-03T21:49:57.412Z,2.60
2022-11-03T21:52:42.721Z,1.90
2022-11-03T21:55:28.989Z,1.80
2022-11-03T21:58:14.596Z,2.80
2022-11-03T22:01:05.031Z,1.40
2022-11-03T22:03:50.419Z,1.55
2022-11-03T22:06:35.760Z,2.30
2022-11-03T22:09:21.491Z,1.90
2022-11-03T22:12:07.105Z,1.45
2022-11-03T22:15:11.184Z,2.42
2022-11-03T22:18:04.711Z,1.70
2022-11-03T22:21:08.561Z,1.65
2022-11-03T22:24:12.545Z,1.90
2022-11-03T22:30:04.673Z,1.10
2022-11-03T22:32:52.500Z,1.42
2022-11-03T22:35:56.232Z,2.13
2022-11-03T22:39:00.261Z,1.15
2022-11-03T22:45:10.547Z,1.27
2022-11-03T22:47:57.481Z,1.88
2022-11-03T22:50:43.721Z,2.65
2022-11-03T22:53:50.070Z,2.70
2022-11-03T22:56:35.499Z,3.10
2022-11-03T22:59:21.076Z,2.35
2022-11-03T23:02:07.035Z,2.33
2022-11-03T23:04:52.685Z,2.42
2022-11-03T23:07:41.185Z,2.40
2022-11-03T23:10:28.499Z,2.78
2022-11-03T23:13:14.070Z,2.60
2022-11-03T23:15:59.724Z,3.20
2022-11-03T23:19:05.096Z,2.70
2022-11-03T23:21:52.329Z,3.22
2022-11-03T23:24:56.338Z,3.78
2022-11-03T23:27:42.249Z,3.75
2022-11-03T23:30:27.718Z,4.38
2022-11-03T23:33:13.503Z,4.93
2022-11-03T23:36:05.950Z,5.20
2022-11-03T23:38:51.600Z,6.33
2022-11-03T23:41:36.667Z,5.60
2022-11-03T23:44:22.389Z,6.05
2022-11-03T23:47:27.396Z,6.63
2022-11-03T23:50:12.849Z,6.03
2022-11-03T23:52:58.511Z,6.22
2022-11-03T23:56:02.699Z,5.25
2022-11-03T23:58:52.408Z,6.50
